sensor_id;sensor_type;location;lat;lon;timestamp;temperature;humidity
55673;DHT22;41554;45.366;20.400;2022-08-21T06:58:18;537.80;2406.40
55673;DHT22;41554;45.366;20.400;2022-08-21T07:00:48;537.70;2406.40
55673;DHT22;41554;45.366;20.400;2022-08-21T07:03:25;537.70;2406.40
55673;DHT22;41554;45.366;20.400;2022-08-21T07:05:53;537.70;2406.40
55673;DHT22;41554;45.366;20.400;2022-08-21T07:08:19;537.90;2406.40
55673;DHT22;41554;45.366;20.400;2022-08-21T07:10:46;538.00;2406.40
55673;DHT22;41554;45.366;20.400;2022-08-21T07:13:13;538.00;2406.40
55673;DHT22;41554;45.366;20.400;2022-08-21T07:15:39;538.00;2406.40
55673;DHT22;41554;45.366;20.400;2022-08-21T07:18:05;538.00;2406.40
55673;DHT22;41554;45.366;20.400;2022-08-21T07:20:31;538.10;2406.40
55673;DHT22;41554;45.366;20.400;2022-08-21T07:23:01;538.20;2406.40
55673;DHT22;41554;45.366;20.400;2022-08-21T07:25:27;538.20;2406.40
55673;DHT22;41554;45.366;20.400;2022-08-21T07:27:53;538.20;2406.40
55673;DHT22;41554;45.366;20.400;2022-08-21T07:30:19;538.20;2406.40
55673;DHT22;41554;45.366;20.400;2022-08-21T07:32:45;538.20;2406.40
55673;DHT22;41554;45.366;20.400;2022-08-21T07:35:11;538.20;2406.40
55673;DHT22;41554;45.366;20.400;2022-08-21T07:37:36;538.20;2406.40
55673;DHT22;41554;45.366;20.400;2022-08-21T07:40:03;538.20;2406.40
55673;DHT22;41554;45.366;20.400;2022-08-21T07:42:29;538.40;2406.40
55673;DHT22;41554;45.366;20.400;2022-08-21T07:44:55;538.40;2406.40
55673;DHT22;41554;45.366;20.400;2022-08-21T07:47:21;538.50;2406.40
55673;DHT22;41554;45.366;20.400;2022-08-21T07:49:46;538.50;2406.40
55673;DHT22;41554;45.366;20.400;2022-08-21T07:52:12;563.20;2432.00
55673;DHT22;41554;45.366;20.400;2022-08-21T11:58:39;589.70;2432.00
55673;DHT22;41554;45.366;20.400;2022-08-21T12:01:19;614.50;2432.00
55673;DHT22;41554;45.366;20.400;2022-08-21T12:04:08;614.50;2432.00
55673;DHT22;41554;45.366;20.400;2022-08-21T12:06:40;614.40;2432.00
55673;DHT22;41554;45.366;20.400;2022-08-21T12:09:10;614.40;2432.00
55673;DHT22;41554;45.366;20.400;2022-08-21T12:11:59;614.40;2432.00
55673;DHT22;41554;45.366;20.400;2022-08-21T12:14:37;614.40;2432.00
55673;DHT22;41554;45.366;20.400;2022-08-21T12:17:06;614.40;2432.00
55673;DHT22;41554;45.366;20.400;2022-08-21T12:19:32;589.60;2432.00
55673;DHT22;41554;45.366;20.400;2022-08-21T12:27:18;589.60;2432.00
55673;DHT22;41554;45.366;20.400;2022-08-21T12:29:59;589.50;2432.00
55673;DHT22;41554;45.366;20.400;2022-08-21T12:32:42;589.40;2432.00
55673;DHT22;41554;45.366;20.400;2022-08-21T12:35:21;589.40;2432.00
55673;DHT22;41554;45.366;20.400;2022-08-21T12:38:26;589.30;2432.00
55673;DHT22;41554;45.366;20.400;2022-08-21T12:40:54;589.30;2432.00
55673;DHT22;41554;45.366;20.400;2022-08-21T12:43:47;589.30;2432.00
55673;DHT22;41554;45.366;20.400;2022-08-21T12:46:29;589.20;2432.00
55673;DHT22;41554;45.366;20.400;2022-08-21T12:49:00;589.10;2432.00
55673;DHT22;41554;45.366;20.400;2022-08-21T12:51:42;589.00;2432.00
55673;DHT22;41554;45.366;20.400;2022-08-21T12:54:23;589.00;2432.00
55673;DHT22;41554;45.366;20.400;2022-08-21T12:57:20;589.00;2432.00
55673;DHT22;41554;45.366;20.400;2022-08-21T12:59:46;589.00;2432.00
55673;DHT22;41554;45.366;20.400;2022-08-21T13:02:19;588.90;2432.00
55673;DHT22;41554;45.366;20.400;2022-08-21T13:04:47;588.90;2432.00
55673;DHT22;41554;45.366;20.400;2022-08-21T13:07:19;588.80;2432.00
55673;DHT22;41554;45.366;20.400;2022-08-21T13:09:52;588.80;2432.00
55673;DHT22;41554;45.366;20.400;2022-08-21T13:12:20;564.10;2432.00
55673;DHT22;41554;45.366;20.400;2022-08-21T13:14:48;564.10;2432.00
55673;DHT22;41554;45.366;20.400;2022-08-21T13:17:20;564.10;2432.00
55673;DHT22;41554;45.366;20.400;2022-08-21T13:20:01;564.00;2432.00
55673;DHT22;41554;45.366;20.400;2022-08-21T13:22:28;564.10;2432.00
